PWSweather.com
Personal Weather Stations
Station Observations

ChardChardGB

Lat: 50.877408, Lon: -2.94964741

Elevation: 341

Station Type: WS3083

http://www.merriott-astro.co.uk/weather/index.htm

High Low Average
Temperature 57.4°F14.1°C 40.3°F4.6°C 46.9°F8.3°C
Dew Point 35.6°F2.0°C 29.3°F-1.5°C 32.7°F0.4°C
Winds 14.7 mph 23.7 kmh 3.0 mph 4.8 kmh 9.0 mph SW14.5 kmh SW
Wind Gusts 23.5 mph37.8 kmh 3.8 mph6.1 kmh 13.0 mph20.9 kmh
Humidity 73% 40% 59%
Pressure 29.61 in1002.7 mb 29.53 in1000.0 mb -
Precipitation 0.00 in0.0 mm - -
Hour Temp Dew Point Humidity Winds Wind Gusts Pressure Precip Precip Rate Daily Precip Total
12:00 AM 43.2°F6.2°C 33.7°F0.9°C 69% 6.6 mph NE10.6 kmh NE 8.3 mph13.4 kmh 29.57 in1001.4 mb 0.00 in0.0 mm 0.00 in0.0 mm 0.00 in0.0 mm
12:10 AM 43.0°F6.1°C 33.9°F1.1°C 70% 7.5 mph NE12.1 kmh NE 13.0 mph20.9 kmh 29.57 in1001.4 mb 0.00 in0.0 mm 0.00 in0.0 mm 0.00 in0.0 mm
12:20 AM 42.8°F6.0°C 34.1°F1.2°C 71% 6.9 mph ENE11.1 kmh ENE 11.4 mph18.3 kmh 29.57 in1001.4 mb 0.00 in0.0 mm 0.00 in0.0 mm 0.00 in0.0 mm
12:30 AM 42.4°F5.8°C 34.1°F1.2°C 72% 5.5 mph NE8.9 kmh NE 8.3 mph13.4 kmh 29.56 in1001.0 mb 0.00 in0.0 mm 0.00 in0.0 mm 0.00 in0.0 mm
12:40 AM 42.3°F5.7°C 34.2°F1.2°C 73% 7.2 mph N11.6 kmh N 13.0 mph20.9 kmh 29.56 in1001.0 mb 0.00 in0.0 mm 0.00 in0.0 mm 0.00 in0.0 mm
12:50 AM 42.1°F5.6°C 34.1°F1.2°C 73% 6.6 mph E10.6 kmh E 9.2 mph14.8 kmh 29.55 in1000.7 mb 0.00 in0.0 mm 0.00 in0.0 mm 0.00 in0.0 mm
01:00 AM 42.1°F5.6°C 34.1°F1.2°C 73% 8.9 mph NNE14.3 kmh NNE 13.0 mph20.9 kmh 29.55 in1000.7 mb 0.00 in0.0 mm 0.00 in0.0 mm 0.00 in0.0 mm
01:10 AM 41.9°F5.5°C 33.9°F1.1°C 73% 6.4 mph NE10.3 kmh NE 9.8 mph15.8 kmh 29.56 in1001.0 mb 0.00 in0.0 mm 0.00 in0.0 mm 0.00 in0.0 mm
01:20 AM 41.7°F5.4°C 33.7°F0.9°C 73% 3.9 mph NNW6.3 kmh NNW 4.5 mph7.2 kmh 29.55 in1000.7 mb 0.00 in0.0 mm 0.00 in0.0 mm 0.00 in0.0 mm
01:30 AM 41.9°F5.5°C 33.9°F1.1°C 73% 7.9 mph NE12.7 kmh NE 11.4 mph18.3 kmh 29.56 in1001.0 mb 0.00 in0.0 mm 0.00 in0.0 mm 0.00 in0.0 mm
01:40 AM 41.9°F5.5°C 33.9°F1.1°C 73% 6.0 mph N9.7 kmh N 9.2 mph14.8 kmh 29.56 in1001.0 mb 0.00 in0.0 mm 0.00 in0.0 mm 0.00 in0.0 mm
01:50 AM 42.3°F5.7°C 33.9°F1.1°C 72% 6.9 mph N11.1 kmh N 13.0 mph20.9 kmh 29.56 in1001.0 mb 0.00 in0.0 mm 0.00 in0.0 mm 0.00 in0.0 mm
02:00 AM 42.4°F5.8°C 34.1°F1.2°C 72% 7.3 mph NNW11.7 kmh NNW 9.8 mph15.8 kmh 29.55 in1000.7 mb 0.00 in0.0 mm 0.00 in0.0 mm 0.00 in0.0 mm
02:10 AM 42.6°F5.9°C 33.9°F1.1°C 71% 10.2 mph N16.4 kmh N 13.0 mph20.9 kmh 29.55 in1000.7 mb 0.00 in0.0 mm 0.00 in0.0 mm 0.00 in0.0 mm
02:20 AM 42.4°F5.8°C 33.4°F0.8°C 70% 10.1 mph N16.3 kmh N 16.8 mph27.0 kmh 29.55 in1000.7 mb 0.00 in0.0 mm 0.00 in0.0 mm 0.00 in0.0 mm
02:30 AM 42.4°F5.8°C 33.4°F0.8°C 70% 9.5 mph E15.3 kmh E 12.1 mph19.5 kmh 29.55 in1000.7 mb 0.00 in0.0 mm 0.00 in0.0 mm 0.00 in0.0 mm
02:40 AM 42.3°F5.7°C 33.2°F0.7°C 70% 10.3 mph NNW16.6 kmh NNW 13.0 mph20.9 kmh 29.55 in1000.7 mb 0.00 in0.0 mm 0.00 in0.0 mm 0.00 in0.0 mm
02:50 AM 42.3°F5.7°C 33.2°F0.7°C 70% 9.0 mph ENE14.5 kmh ENE 13.0 mph20.9 kmh 29.55 in1000.7 mb 0.00 in0.0 mm 0.00 in0.0 mm 0.00 in0.0 mm
03:00 AM 42.3°F5.7°C 32.8°F0.4°C 69% 10.2 mph N16.4 kmh N 15.9 mph25.6 kmh 29.55 in1000.7 mb 0.00 in0.0 mm 0.00 in0.0 mm 0.00 in0.0 mm
03:10 AM 42.1°F5.6°C 33.0°F0.6°C 70% 8.9 mph N14.3 kmh N 12.1 mph19.5 kmh 29.55 in1000.7 mb 0.00 in0.0 mm 0.00 in0.0 mm 0.00 in0.0 mm
03:20 AM 41.9°F5.5°C 32.5°F0.3°C 69% 10.2 mph NNW16.4 kmh NNW 15.9 mph25.6 kmh 29.54 in1000.3 mb 0.00 in0.0 mm 0.00 in0.0 mm 0.00 in0.0 mm
03:30 AM 41.7°F5.4°C 32.3°F0.2°C 69% 8.5 mph NNE13.7 kmh NNE 13.0 mph20.9 kmh 29.55 in1000.7 mb 0.00 in0.0 mm 0.00 in0.0 mm 0.00 in0.0 mm
03:40 AM 41.5°F5.3°C 32.5°F0.3°C 70% 8.6 mph N13.8 kmh N 11.4 mph18.3 kmh 29.54 in1000.3 mb 0.00 in0.0 mm 0.00 in0.0 mm 0.00 in0.0 mm
03:50 AM 41.4°F5.2°C 32.3°F0.2°C 70% 10.1 mph NW16.3 kmh NW 15.2 mph24.5 kmh 29.54 in1000.3 mb 0.00 in0.0 mm 0.00 in0.0 mm 0.00 in0.0 mm
04:00 AM 41.2°F5.1°C 32.2°F0.1°C 70% 11.4 mph NNW18.3 kmh NNW 19.0 mph30.6 kmh 29.53 in1000.0 mb 0.00 in0.0 mm 0.00 in0.0 mm 0.00 in0.0 mm
04:10 AM 41.0°F5.0°C 32.0°F0.0°C 70% 10.2 mph N16.4 kmh N 16.8 mph27.0 kmh 29.53 in1000.0 mb 0.00 in0.0 mm 0.00 in0.0 mm 0.00 in0.0 mm
04:20 AM 40.8°F4.9°C 31.8°F-0.1°C 70% 9.4 mph NNW15.1 kmh NNW 12.1 mph19.5 kmh 29.54 in1000.3 mb 0.00 in0.0 mm 0.00 in0.0 mm 0.00 in0.0 mm
04:30 AM 40.6°F4.8°C 31.6°F-0.2°C 70% 8.0 mph N12.9 kmh N 15.9 mph25.6 kmh 29.53 in1000.0 mb 0.00 in0.0 mm 0.00 in0.0 mm 0.00 in0.0 mm
04:40 AM 40.5°F4.7°C 31.8°F-0.1°C 71% 9.3 mph NW15.0 kmh NW 14.5 mph23.3 kmh 29.53 in1000.0 mb 0.00 in0.0 mm 0.00 in0.0 mm 0.00 in0.0 mm
04:50 AM 40.3°F4.6°C 31.6°F-0.2°C 71% 9.1 mph N14.6 kmh N 13.6 mph21.9 kmh 29.53 in1000.0 mb 0.00 in0.0 mm 0.00 in0.0 mm 0.00 in0.0 mm
05:00 AM 40.3°F4.6°C 31.6°F-0.2°C 71% 10.1 mph NW16.3 kmh NW 15.9 mph25.6 kmh 29.53 in1000.0 mb 0.00 in0.0 mm 0.00 in0.0 mm 0.00 in0.0 mm
05:10 AM 40.3°F4.6°C 31.6°F-0.2°C 71% 11.5 mph NW18.5 kmh NW 14.5 mph23.3 kmh 29.54 in1000.3 mb 0.00 in0.0 mm 0.00 in0.0 mm 0.00 in0.0 mm
05:20 AM 40.5°F4.7°C 31.8°F-0.1°C 71% 11.2 mph N18.0 kmh N 15.9 mph25.6 kmh 29.54 in1000.3 mb 0.00 in0.0 mm 0.00 in0.0 mm 0.00 in0.0 mm
05:30 AM 40.5°F4.7°C 31.8°F-0.1°C 71% 9.3 mph NNW15.0 kmh NNW 12.1 mph19.5 kmh 29.55 in1000.7 mb 0.00 in0.0 mm 0.00 in0.0 mm 0.00 in0.0 mm
05:40 AM 40.5°F4.7°C 31.5°F-0.3°C 70% 10.6 mph NW17.1 kmh NW 15.2 mph24.5 kmh 29.55 in1000.7 mb 0.00 in0.0 mm 0.00 in0.0 mm 0.00 in0.0 mm
05:50 AM 40.5°F4.7°C 31.5°F-0.3°C 70% 9.7 mph N15.6 kmh N 14.5 mph23.3 kmh 29.55 in1000.7 mb 0.00 in0.0 mm 0.00 in0.0 mm 0.00 in0.0 mm
06:00 AM 40.5°F4.7°C 31.5°F-0.3°C 70% 11.4 mph NNW18.3 kmh NNW 14.5 mph23.3 kmh 29.55 in1000.7 mb 0.00 in0.0 mm 0.00 in0.0 mm 0.00 in0.0 mm
06:10 AM 40.6°F4.8°C 32.0°F0.0°C 71% 10.4 mph NNW16.7 kmh NNW 14.5 mph23.3 kmh 29.55 in1000.7 mb 0.00 in0.0 mm 0.00 in0.0 mm 0.00 in0.0 mm
06:20 AM 40.6°F4.8°C 32.0°F0.0°C 71% 12.5 mph N20.1 kmh N 16.8 mph27.0 kmh 29.55 in1000.7 mb 0.00 in0.0 mm 0.00 in0.0 mm 0.00 in0.0 mm
06:30 AM 41.0°F5.0°C 32.3°F0.2°C 71% 8.9 mph NNW14.3 kmh NNW 12.1 mph19.5 kmh 29.55 in1000.7 mb 0.00 in0.0 mm 0.00 in0.0 mm 0.00 in0.0 mm
06:40 AM 41.2°F5.1°C 32.2°F0.1°C 70% 12.1 mph NNW19.5 kmh NNW 17.4 mph28.0 kmh 29.55 in1000.7 mb 0.00 in0.0 mm 0.00 in0.0 mm 0.00 in0.0 mm
06:50 AM 41.4°F5.2°C 32.3°F0.2°C 70% 11.7 mph NNW18.8 kmh NNW 16.8 mph27.0 kmh 29.54 in1000.3 mb 0.00 in0.0 mm 0.00 in0.0 mm 0.00 in0.0 mm
07:00 AM 41.7°F5.4°C 32.3°F0.2°C 69% 12.5 mph N20.1 kmh N 18.3 mph29.5 kmh 29.54 in1000.3 mb 0.00 in0.0 mm 0.00 in0.0 mm 0.00 in0.0 mm
07:10 AM 42.1°F5.6°C 32.3°F0.2°C 68% 11.2 mph NNE18.0 kmh NNE 18.3 mph29.5 kmh 29.55 in1000.7 mb 0.00 in0.0 mm 0.00 in0.0 mm 0.00 in0.0 mm
07:20 AM 42.3°F5.7°C 32.5°F0.3°C 68% 10.5 mph NNE16.9 kmh NNE 15.2 mph24.5 kmh 29.54 in1000.3 mb 0.00 in0.0 mm 0.00 in0.0 mm 0.00 in0.0 mm
07:30 AM 42.4°F5.8°C 32.3°F0.2°C 67% 12.0 mph NW19.3 kmh NW 19.0 mph30.6 kmh 29.55 in1000.7 mb 0.00 in0.0 mm 0.00 in0.0 mm 0.00 in0.0 mm
07:40 AM 42.6°F5.9°C 32.1°F0.1°C 66% 10.8 mph NNW17.4 kmh NNW 14.5 mph23.3 kmh 29.55 in1000.7 mb 0.00 in0.0 mm 0.00 in0.0 mm 0.00 in0.0 mm
07:50 AM 42.8°F6.0°C 32.2°F0.1°C 66% 12.0 mph NNE19.3 kmh NNE 19.0 mph30.6 kmh 29.55 in1000.7 mb 0.00 in0.0 mm 0.00 in0.0 mm 0.00 in0.0 mm
08:00 AM 43.3°F6.3°C 32.8°F0.4°C 66% 9.3 mph N15.0 kmh N 14.5 mph23.3 kmh 29.54 in1000.3 mb 0.00 in0.0 mm 0.00 in0.0 mm 0.00 in0.0 mm
08:10 AM 43.7°F6.5°C 33.1°F0.6°C 66% 11.1 mph NW17.9 kmh NW 18.3 mph29.5 kmh 29.55 in1000.7 mb 0.00 in0.0 mm 0.00 in0.0 mm 0.00 in0.0 mm
08:20 AM 43.9°F6.6°C 33.3°F0.7°C 66% 8.5 mph NNW13.7 kmh NNW 14.5 mph23.3 kmh 29.55 in1000.7 mb 0.00 in0.0 mm 0.00 in0.0 mm 0.00 in0.0 mm
08:30 AM 43.9°F6.6°C 33.3°F0.7°C 66% 9.6 mph NW15.4 kmh NW 13.0 mph20.9 kmh 29.54 in1000.3 mb 0.00 in0.0 mm 0.00 in0.0 mm 0.00 in0.0 mm
08:40 AM 44.4°F6.9°C 33.4°F0.8°C 65% 8.3 mph N13.4 kmh N 17.4 mph28.0 kmh 29.55 in1000.7 mb 0.00 in0.0 mm 0.00 in0.0 mm 0.00 in0.0 mm
08:50 AM 44.2°F6.8°C 32.8°F0.4°C 64% 8.8 mph NNW14.2 kmh NNW 12.1 mph19.5 kmh 29.55 in1000.7 mb 0.00 in0.0 mm 0.00 in0.0 mm 0.00 in0.0 mm
09:00 AM 44.6°F7.0°C 32.8°F0.4°C 63% 11.8 mph N19.0 kmh N 15.9 mph25.6 kmh 29.54 in1000.3 mb 0.00 in0.0 mm 0.00 in0.0 mm 0.00 in0.0 mm
09:10 AM 44.8°F7.1°C 32.6°F0.3°C 62% 11.5 mph NNW18.5 kmh NNW 19.0 mph30.6 kmh 29.55 in1000.7 mb 0.00 in0.0 mm 0.00 in0.0 mm 0.00 in0.0 mm
09:20 AM 45.3°F7.4°C 32.7°F0.4°C 61% 12.5 mph ENE20.1 kmh ENE 18.3 mph29.5 kmh 29.54 in1000.3 mb 0.00 in0.0 mm 0.00 in0.0 mm 0.00 in0.0 mm
09:30 AM 45.7°F7.6°C 31.3°F-0.4°C 57% 12.6 mph NE20.3 kmh NE 14.5 mph23.3 kmh 29.55 in1000.7 mb 0.00 in0.0 mm 0.00 in0.0 mm 0.00 in0.0 mm
09:40 AM 46.4°F8.0°C 31.6°F-0.2°C 56% 11.3 mph NNE18.2 kmh NNE 15.2 mph24.5 kmh 29.55 in1000.7 mb 0.00 in0.0 mm 0.00 in0.0 mm 0.00 in0.0 mm
09:50 AM 47.5°F8.6°C 32.1°F0.1°C 55% 12.3 mph N19.8 kmh N 18.3 mph29.5 kmh 29.55 in1000.7 mb 0.00 in0.0 mm 0.00 in0.0 mm 0.00 in0.0 mm
10:00 AM 48.2°F9.0°C 31.9°F-0.1°C 53% 13.0 mph E20.9 kmh E 15.2 mph24.5 kmh 29.53 in1000.0 mb 0.00 in0.0 mm 0.00 in0.0 mm 0.00 in0.0 mm
10:10 AM 49.1°F9.5°C 32.7°F0.4°C 53% 12.7 mph NE20.4 kmh NE 16.8 mph27.0 kmh 29.55 in1000.7 mb 0.00 in0.0 mm 0.00 in0.0 mm 0.00 in0.0 mm
10:20 AM 48.9°F9.4°C 32.1°F0.1°C 52% 12.4 mph NE20.0 kmh NE 18.3 mph29.5 kmh 29.54 in1000.3 mb 0.00 in0.0 mm 0.00 in0.0 mm 0.00 in0.0 mm
10:30 AM 49.1°F9.5°C 31.8°F-0.1°C 51% 14.0 mph NNE22.5 kmh NNE 17.4 mph28.0 kmh 29.54 in1000.3 mb 0.00 in0.0 mm 0.00 in0.0 mm 0.00 in0.0 mm
10:40 AM 50.0°F10.0°C 32.1°F0.1°C 50% 14.1 mph NNW22.7 kmh NNW 19.0 mph30.6 kmh 29.55 in1000.7 mb 0.00 in0.0 mm 0.00 in0.0 mm 0.00 in0.0 mm
10:50 AM 49.5°F9.7°C 32.1°F0.1°C 51% 14.7 mph NNW23.7 kmh NNW 21.3 mph34.3 kmh 29.54 in1000.3 mb 0.00 in0.0 mm 0.00 in0.0 mm 0.00 in0.0 mm
11:00 AM 51.3°F10.7°C 32.8°F0.4°C 49% 10.6 mph W17.1 kmh W 13.6 mph21.9 kmh 29.54 in1000.3 mb 0.00 in0.0 mm 0.00 in0.0 mm 0.00 in0.0 mm
11:10 AM 51.3°F10.7°C 31.2°F-0.4°C 46% 13.9 mph NNE22.4 kmh NNE 19.7 mph31.7 kmh 29.54 in1000.3 mb 0.00 in0.0 mm 0.00 in0.0 mm 0.00 in0.0 mm
11:20 AM 51.6°F10.9°C 31.0°F-0.6°C 45% 13.8 mph NE22.2 kmh NE 19.7 mph31.7 kmh 29.54 in1000.3 mb 0.00 in0.0 mm 0.00 in0.0 mm 0.00 in0.0 mm
11:30 AM 51.8°F11.0°C 30.6°F-0.8°C 44% 13.3 mph ENE21.4 kmh ENE 21.3 mph34.3 kmh 29.54 in1000.3 mb 0.00 in0.0 mm 0.00 in0.0 mm 0.00 in0.0 mm
11:40 AM 51.1°F10.6°C 29.4°F-1.4°C 43% 12.4 mph NE20.0 kmh NE 16.8 mph27.0 kmh 29.54 in1000.3 mb 0.00 in0.0 mm 0.00 in0.0 mm 0.00 in0.0 mm
11:50 AM 50.4°F10.2°C 29.3°F-1.5°C 44% 13.2 mph NNW21.2 kmh NNW 22.1 mph35.6 kmh 29.54 in1000.3 mb 0.00 in0.0 mm 0.00 in0.0 mm 0.00 in0.0 mm
12:00 PM 50.4°F10.2°C 31.4°F-0.3°C 48% 12.0 mph N19.3 kmh N 19.0 mph30.6 kmh 29.54 in1000.3 mb 0.00 in0.0 mm 0.00 in0.0 mm 0.00 in0.0 mm
12:10 PM 52.0°F11.1°C 31.3°F-0.4°C 45% 10.9 mph NNW17.5 kmh NNW 14.5 mph23.3 kmh 29.54 in1000.3 mb 0.00 in0.0 mm 0.00 in0.0 mm 0.00 in0.0 mm
12:20 PM 53.4°F11.9°C 30.9°F-0.6°C 42% 10.2 mph NE16.4 kmh NE 14.5 mph23.3 kmh 29.55 in1000.7 mb 0.00 in0.0 mm 0.00 in0.0 mm 0.00 in0.0 mm
12:30 PM 52.9°F11.6°C 30.4°F-0.9°C 42% 13.6 mph NW21.9 kmh NW 23.5 mph37.8 kmh 29.54 in1000.3 mb 0.00 in0.0 mm 0.00 in0.0 mm 0.00 in0.0 mm
12:40 PM 52.0°F11.1°C 29.6°F-1.3°C 42% 10.3 mph N16.6 kmh N 13.6 mph21.9 kmh 29.54 in1000.3 mb 0.00 in0.0 mm 0.00 in0.0 mm 0.00 in0.0 mm
12:50 PM 52.5°F11.4°C 31.8°F-0.1°C 45% 7.5 mph N12.1 kmh N 13.6 mph21.9 kmh 29.54 in1000.3 mb 0.00 in0.0 mm 0.00 in0.0 mm 0.00 in0.0 mm
01:00 PM 53.2°F11.8°C 31.3°F-0.4°C 43% 8.9 mph SE14.3 kmh SE 12.1 mph19.5 kmh 29.54 in1000.3 mb 0.00 in0.0 mm 0.00 in0.0 mm 0.00 in0.0 mm
01:10 PM 53.8°F12.1°C 32.4°F0.2°C 44% 10.1 mph NNW16.3 kmh NNW 13.0 mph20.9 kmh 29.55 in1000.7 mb 0.00 in0.0 mm 0.00 in0.0 mm 0.00 in0.0 mm
01:20 PM 54.9°F12.7°C 31.6°F-0.2°C 41% 9.6 mph NW15.4 kmh NW 13.6 mph21.9 kmh 29.54 in1000.3 mb 0.00 in0.0 mm 0.00 in0.0 mm 0.00 in0.0 mm
01:30 PM 54.3°F12.4°C 31.1°F-0.5°C 41% 8.8 mph N14.2 kmh N 13.0 mph20.9 kmh 29.54 in1000.3 mb 0.00 in0.0 mm 0.00 in0.0 mm 0.00 in0.0 mm
01:40 PM 53.6°F12.0°C 31.7°F-0.2°C 43% 9.5 mph NW15.3 kmh NW 13.0 mph20.9 kmh 29.55 in1000.7 mb 0.00 in0.0 mm 0.00 in0.0 mm 0.00 in0.0 mm
01:50 PM 54.5°F12.5°C 31.9°F-0.1°C 42% 9.3 mph W15.0 kmh W 13.0 mph20.9 kmh 29.54 in1000.3 mb 0.00 in0.0 mm 0.00 in0.0 mm 0.00 in0.0 mm
02:00 PM 53.8°F12.1°C 32.4°F0.2°C 44% 9.4 mph N15.1 kmh N 13.6 mph21.9 kmh 29.54 in1000.3 mb 0.00 in0.0 mm 0.00 in0.0 mm 0.00 in0.0 mm
02:10 PM 54.1°F12.3°C 32.1°F0.1°C 43% 8.9 mph N14.3 kmh N 12.1 mph19.5 kmh 29.54 in1000.3 mb 0.00 in0.0 mm 0.00 in0.0 mm 0.00 in0.0 mm
02:20 PM 54.5°F12.5°C 31.3°F-0.4°C 41% 9.5 mph NNE15.3 kmh NNE 15.9 mph25.6 kmh 29.54 in1000.3 mb 0.00 in0.0 mm 0.00 in0.0 mm 0.00 in0.0 mm
02:30 PM 55.4°F13.0°C 31.5°F-0.3°C 40% 7.8 mph NNW12.6 kmh NNW 12.1 mph19.5 kmh 29.54 in1000.3 mb 0.00 in0.0 mm 0.00 in0.0 mm 0.00 in0.0 mm
02:40 PM 54.1°F12.3°C 31.6°F-0.2°C 42% 9.6 mph NW15.4 kmh NW 13.0 mph20.9 kmh 29.54 in1000.3 mb 0.00 in0.0 mm 0.00 in0.0 mm 0.00 in0.0 mm
02:50 PM 53.1°F11.7°C 32.8°F0.4°C 46% 7.4 mph NE11.9 kmh NE 12.1 mph19.5 kmh 29.54 in1000.3 mb 0.00 in0.0 mm 0.00 in0.0 mm 0.00 in0.0 mm
03:00 PM 53.8°F12.1°C 33.5°F0.8°C 46% 7.1 mph NW11.4 kmh NW 10.7 mph17.2 kmh 29.53 in1000.0 mb 0.00 in0.0 mm 0.00 in0.0 mm 0.00 in0.0 mm
03:10 PM 55.8°F13.2°C 32.4°F0.2°C 41% 7.2 mph N11.6 kmh N 13.6 mph21.9 kmh 29.55 in1000.7 mb 0.00 in0.0 mm 0.00 in0.0 mm 0.00 in0.0 mm
03:20 PM 57.2°F14.0°C 33.1°F0.6°C 40% 7.7 mph NNW12.4 kmh NNW 10.7 mph17.2 kmh 29.55 in1000.7 mb 0.00 in0.0 mm 0.00 in0.0 mm 0.00 in0.0 mm
03:30 PM 56.3°F13.5°C 32.3°F0.2°C 40% 7.8 mph NE12.6 kmh NE 11.4 mph18.3 kmh 29.55 in1000.7 mb 0.00 in0.0 mm 0.00 in0.0 mm 0.00 in0.0 mm
03:40 PM 56.8°F13.8°C 34.0°F1.1°C 42% 7.7 mph NNE12.4 kmh NNE 11.4 mph18.3 kmh 29.54 in1000.3 mb 0.00 in0.0 mm 0.00 in0.0 mm 0.00 in0.0 mm
03:50 PM 57.2°F14.0°C 33.1°F0.6°C 40% 7.7 mph N12.4 kmh N 12.1 mph19.5 kmh 29.54 in1000.3 mb 0.00 in0.0 mm 0.00 in0.0 mm 0.00 in0.0 mm
04:00 PM 57.4°F14.1°C 33.3°F0.7°C 40% 8.3 mph NNW13.4 kmh NNW 12.1 mph19.5 kmh 29.55 in1000.7 mb 0.00 in0.0 mm 0.00 in0.0 mm 0.00 in0.0 mm
04:10 PM 57.0°F13.9°C 32.9°F0.5°C 40% 8.5 mph N13.7 kmh N 15.9 mph25.6 kmh 29.54 in1000.3 mb 0.00 in0.0 mm 0.00 in0.0 mm 0.00 in0.0 mm
04:20 PM 56.1°F13.4°C 32.8°F0.4°C 41% 8.7 mph N14.0 kmh N 12.1 mph19.5 kmh 29.55 in1000.7 mb 0.00 in0.0 mm 0.00 in0.0 mm 0.00 in0.0 mm
04:30 PM 54.5°F12.5°C 30.7°F-0.7°C 40% 8.6 mph N13.8 kmh N 11.4 mph18.3 kmh 29.55 in1000.7 mb 0.00 in0.0 mm 0.00 in0.0 mm 0.00 in0.0 mm
04:40 PM 53.6°F12.0°C 33.3°F0.7°C 46% 5.6 mph NE9.0 kmh NE 8.3 mph13.4 kmh 29.54 in1000.3 mb 0.00 in0.0 mm 0.00 in0.0 mm 0.00 in0.0 mm
04:50 PM 52.9°F11.6°C 34.8°F1.6°C 50% 6.0 mph NNE9.7 kmh NNE 9.2 mph14.8 kmh 29.55 in1000.7 mb 0.00 in0.0 mm 0.00 in0.0 mm 0.00 in0.0 mm
05:00 PM 52.7°F11.5°C 34.6°F1.4°C 50% 5.4 mph E8.7 kmh E 8.3 mph13.4 kmh 29.55 in1000.7 mb 0.00 in0.0 mm 0.00 in0.0 mm 0.00 in0.0 mm
05:10 PM 52.3°F11.3°C 34.3°F1.3°C 50% 5.2 mph N8.4 kmh N 7.6 mph12.2 kmh 29.55 in1000.7 mb 0.00 in0.0 mm 0.00 in0.0 mm 0.00 in0.0 mm
05:20 PM 52.5°F11.4°C 34.9°F1.6°C 51% 3.0 mph NNW4.8 kmh NNW 3.8 mph6.1 kmh 29.55 in1000.7 mb 0.00 in0.0 mm 0.00 in0.0 mm 0.00 in0.0 mm
05:30 PM 53.8°F12.1°C 35.6°F2.0°C 50% 3.6 mph NW5.8 kmh NW 6.9 mph11.1 kmh 29.56 in1001.0 mb 0.00 in0.0 mm 0.00 in0.0 mm 0.00 in0.0 mm
05:40 PM 53.8°F12.1°C 34.6°F1.4°C 48% 6.2 mph NNW10.0 kmh NNW 10.7 mph17.2 kmh 29.55 in1000.7 mb 0.00 in0.0 mm 0.00 in0.0 mm 0.00 in0.0 mm
05:50 PM 53.1°F11.7°C 33.9°F1.1°C 48% 6.6 mph NW10.6 kmh NW 12.1 mph19.5 kmh 29.55 in1000.7 mb 0.00 in0.0 mm 0.00 in0.0 mm 0.00 in0.0 mm
06:00 PM 54.0°F12.2°C 34.7°F1.5°C 48% 8.2 mph NW13.2 kmh NW 10.7 mph17.2 kmh 29.54 in1000.3 mb 0.00 in0.0 mm 0.00 in0.0 mm 0.00 in0.0 mm
06:10 PM 55.2°F12.9°C 33.1°F0.6°C 43% 7.6 mph NNW12.2 kmh NNW 10.7 mph17.2 kmh 29.56 in1001.0 mb 0.00 in0.0 mm 0.00 in0.0 mm 0.00 in0.0 mm
06:20 PM 54.9°F12.7°C 32.8°F0.4°C 43% 7.9 mph NW12.7 kmh NW 10.7 mph17.2 kmh 29.55 in1000.7 mb 0.00 in0.0 mm 0.00 in0.0 mm 0.00 in0.0 mm
06:30 PM 53.1°F11.7°C 34.4°F1.3°C 49% 6.7 mph NW10.8 kmh NW 12.1 mph19.5 kmh 29.56 in1001.0 mb 0.00 in0.0 mm 0.00 in0.0 mm 0.00 in0.0 mm
06:40 PM 51.1°F10.6°C 34.1°F1.2°C 52% 8.9 mph NW14.3 kmh NW 13.0 mph20.9 kmh 29.56 in1001.0 mb 0.00 in0.0 mm 0.00 in0.0 mm 0.00 in0.0 mm
06:50 PM 51.4°F10.8°C 34.9°F1.6°C 53% 6.9 mph NW11.1 kmh NW 10.7 mph17.2 kmh 29.56 in1001.0 mb 0.00 in0.0 mm 0.00 in0.0 mm 0.00 in0.0 mm
07:00 PM 50.4°F10.2°C 34.4°F1.3°C 54% 6.8 mph NW10.9 kmh NW 9.2 mph14.8 kmh 29.57 in1001.4 mb 0.00 in0.0 mm 0.00 in0.0 mm 0.00 in0.0 mm
07:10 PM 49.6°F9.8°C 33.7°F0.9°C 54% 6.1 mph NW9.8 kmh NW 8.3 mph13.4 kmh 29.56 in1001.0 mb 0.00 in0.0 mm 0.00 in0.0 mm 0.00 in0.0 mm
07:20 PM 49.1°F9.5°C 33.6°F0.9°C 55% 5.7 mph NW9.2 kmh NW 9.2 mph14.8 kmh 29.56 in1001.0 mb 0.00 in0.0 mm 0.00 in0.0 mm 0.00 in0.0 mm
07:30 PM 48.6°F9.2°C 33.6°F0.9°C 56% 6.2 mph NW10.0 kmh NW 9.8 mph15.8 kmh 29.57 in1001.4 mb 0.00 in0.0 mm 0.00 in0.0 mm 0.00 in0.0 mm
07:40 PM 48.0°F8.9°C 34.0°F1.1°C 58% 5.8 mph WNW9.3 kmh WNW 9.2 mph14.8 kmh 29.57 in1001.4 mb 0.00 in0.0 mm 0.00 in0.0 mm 0.00 in0.0 mm
07:50 PM 47.8°F8.8°C 34.2°F1.2°C 59% 7.1 mph NW11.4 kmh NW 9.8 mph15.8 kmh 29.57 in1001.4 mb 0.00 in0.0 mm 0.00 in0.0 mm 0.00 in0.0 mm
08:00 PM 47.5°F8.6°C 34.3°F1.3°C 60% 6.7 mph NW10.8 kmh NW 8.3 mph13.4 kmh 29.57 in1001.4 mb 0.00 in0.0 mm 0.00 in0.0 mm 0.00 in0.0 mm
08:10 PM 47.1°F8.4°C 34.4°F1.3°C 61% 6.3 mph WNW10.1 kmh WNW 9.2 mph14.8 kmh 29.57 in1001.4 mb 0.00 in0.0 mm 0.00 in0.0 mm 0.00 in0.0 mm
08:20 PM 46.8°F8.2°C 34.0°F1.1°C 61% 7.8 mph NW12.6 kmh NW 11.4 mph18.3 kmh 29.57 in1001.4 mb 0.00 in0.0 mm 0.00 in0.0 mm 0.00 in0.0 mm
08:30 PM 46.6°F8.1°C 33.9°F1.1°C 61% 7.7 mph NW12.4 kmh NW 8.3 mph13.4 kmh 29.58 in1001.7 mb 0.00 in0.0 mm 0.00 in0.0 mm 0.00 in0.0 mm
08:40 PM 46.2°F7.9°C 33.9°F1.1°C 62% 8.0 mph NW12.9 kmh NW 11.4 mph18.3 kmh 29.58 in1001.7 mb 0.00 in0.0 mm 0.00 in0.0 mm 0.00 in0.0 mm
08:50 PM 46.0°F7.8°C 33.4°F0.8°C 61% 7.7 mph WNW12.4 kmh WNW 9.8 mph15.8 kmh 29.58 in1001.7 mb 0.00 in0.0 mm 0.00 in0.0 mm 0.00 in0.0 mm
09:00 PM 45.7°F7.6°C 33.0°F0.6°C 61% 8.1 mph NW13.0 kmh NW 9.8 mph15.8 kmh 29.58 in1001.7 mb 0.00 in0.0 mm 0.00 in0.0 mm 0.00 in0.0 mm
09:10 PM 45.3°F7.4°C 34.3°F1.3°C 65% 7.8 mph NW12.6 kmh NW 11.4 mph18.3 kmh 29.58 in1001.7 mb 0.00 in0.0 mm 0.00 in0.0 mm 0.00 in0.0 mm
09:20 PM 45.1°F7.3°C 34.1°F1.2°C 65% 7.6 mph NW12.2 kmh NW 10.7 mph17.2 kmh 29.58 in1001.7 mb 0.00 in0.0 mm 0.00 in0.0 mm 0.00 in0.0 mm
09:30 PM 44.8°F7.1°C 34.1°F1.2°C 66% 7.4 mph W11.9 kmh W 9.2 mph14.8 kmh 29.58 in1001.7 mb 0.00 in0.0 mm 0.00 in0.0 mm 0.00 in0.0 mm
09:40 PM 44.4°F6.9°C 34.2°F1.2°C 67% 7.0 mph NW11.3 kmh NW 10.7 mph17.2 kmh 29.59 in1002.0 mb 0.00 in0.0 mm 0.00 in0.0 mm 0.00 in0.0 mm
09:50 PM 44.2°F6.8°C 34.4°F1.3°C 68% 6.9 mph NW11.1 kmh NW 9.2 mph14.8 kmh 29.59 in1002.0 mb 0.00 in0.0 mm 0.00 in0.0 mm 0.00 in0.0 mm
10:00 PM 43.9°F6.6°C 34.0°F1.1°C 68% 6.8 mph NW10.9 kmh NW 8.3 mph13.4 kmh 29.59 in1002.0 mb 0.00 in0.0 mm 0.00 in0.0 mm 0.00 in0.0 mm
10:10 PM 43.3°F6.3°C 33.5°F0.8°C 68% 4.7 mph NW7.6 kmh NW 6.9 mph11.1 kmh 29.59 in1002.0 mb 0.00 in0.0 mm 0.00 in0.0 mm 0.00 in0.0 mm
10:20 PM 42.6°F5.9°C 32.8°F0.4°C 68% 3.8 mph WNW6.1 kmh WNW 6.0 mph9.7 kmh 29.59 in1002.0 mb 0.00 in0.0 mm 0.00 in0.0 mm 0.00 in0.0 mm
10:30 PM 42.4°F5.8°C 32.6°F0.3°C 68% 4.4 mph NW7.1 kmh NW 6.0 mph9.7 kmh 29.59 in1002.0 mb 0.00 in0.0 mm 0.00 in0.0 mm 0.00 in0.0 mm
10:40 PM 42.3°F5.7°C 32.5°F0.3°C 68% 3.9 mph WNW6.3 kmh WNW 5.4 mph8.7 kmh 29.60 in1002.4 mb 0.00 in0.0 mm 0.00 in0.0 mm 0.00 in0.0 mm
10:50 PM 42.3°F5.7°C 32.1°F0.1°C 67% 4.6 mph NW7.4 kmh NW 6.9 mph11.1 kmh 29.60 in1002.4 mb 0.00 in0.0 mm 0.00 in0.0 mm 0.00 in0.0 mm
11:00 PM 41.9°F5.5°C 31.8°F-0.1°C 67% 4.1 mph NW6.6 kmh NW 6.0 mph9.7 kmh 29.60 in1002.4 mb 0.00 in0.0 mm 0.00 in0.0 mm 0.00 in0.0 mm
11:10 PM 41.9°F5.5°C 31.4°F-0.3°C 66% 4.0 mph WNW6.4 kmh WNW 6.0 mph9.7 kmh 29.59 in1002.0 mb 0.00 in0.0 mm 0.00 in0.0 mm 0.00 in0.0 mm
11:20 PM 41.5°F5.3°C 31.0°F-0.6°C 66% 3.9 mph W6.3 kmh W 5.4 mph8.7 kmh 29.60 in1002.4 mb 0.00 in0.0 mm 0.00 in0.0 mm 0.00 in0.0 mm
11:30 PM 41.4°F5.2°C 31.2°F-0.4°C 67% 3.1 mph NW5.0 kmh NW 4.5 mph7.2 kmh 29.60 in1002.4 mb 0.00 in0.0 mm 0.00 in0.0 mm 0.00 in0.0 mm
11:40 PM 41.2°F5.1°C 31.1°F-0.5°C 67% 3.2 mph WNW5.1 kmh WNW 4.5 mph7.2 kmh 29.60 in1002.4 mb 0.00 in0.0 mm 0.00 in0.0 mm 0.00 in0.0 mm
11:50 PM 41.2°F5.1°C 31.4°F-0.3°C 68% 3.2 mph NW5.1 kmh NW 4.5 mph7.2 kmh 29.61 in1002.7 mb 0.00 in0.0 mm 0.00 in0.0 mm 0.00 in0.0 mm